createdAt,value
2019-03-26T00:00:08.034Z,4.90
2019-03-26T00:02:36.470Z,4.90
2019-03-26T00:05:05.804Z,5.00
2019-03-26T00:07:34.491Z,5.00
2019-03-26T00:10:03.028Z,5.00
2019-03-26T00:12:31.502Z,5.00
2019-03-26T00:15:00.025Z,5.00
2019-03-26T00:17:28.535Z,5.00
2019-03-26T00:19:57.074Z,5.00
2019-03-26T00:22:25.599Z,5.00
2019-03-26T00:24:54.136Z,5.00
2019-03-26T00:27:22.700Z,5.00
2019-03-26T00:29:51.171Z,5.00
2019-03-26T00:32:19.639Z,5.00
2019-03-26T00:34:48.195Z,4.90
2019-03-26T00:37:16.748Z,4.90
2019-03-26T00:39:45.196Z,4.90
2019-03-26T00:42:13.655Z,4.80
2019-03-26T00:44:42.139Z,4.90
2019-03-26T00:47:10.654Z,5.00
2019-03-26T00:49:39.115Z,5.00
2019-03-26T00:52:07.600Z,5.00
2019-03-26T00:54:36.061Z,5.00
2019-03-26T00:57:04.598Z,5.10
2019-03-26T00:59:33.085Z,5.00
2019-03-26T01:02:01.619Z,5.10
2019-03-26T01:04:32.981Z,5.10
2019-03-26T01:07:00.274Z,5.10
2019-03-26T01:09:28.819Z,5.10
2019-03-26T01:11:57.254Z,5.10
2019-03-26T01:14:25.717Z,5.10
2019-03-26T01:16:54.175Z,5.00
2019-03-26T01:19:22.711Z,5.00
2019-03-26T01:21:51.172Z,5.00
2019-03-26T01:24:19.631Z,5.10
2019-03-26T01:27:07.415Z,5.00
2019-03-26T01:29:35.882Z,5.00
2019-03-26T01:32:04.789Z,5.00
2019-03-26T01:34:45.386Z,5.00
2019-03-26T01:37:03.528Z,5.00
2019-03-26T01:39:32.011Z,4.90
2019-03-26T01:42:00.519Z,5.00
2019-03-26T01:44:28.987Z,4.90
2019-03-26T01:46:57.474Z,4.90
2019-03-26T01:49:25.959Z,4.90
2019-03-26T01:51:54.426Z,4.90
2019-03-26T01:54:22.866Z,4.90
2019-03-26T01:56:51.342Z,5.00
2019-03-26T01:59:19.766Z,5.00
2019-03-26T02:01:48.305Z,5.00
2019-03-26T02:04:16.747Z,4.90
2019-03-26T02:06:45.232Z,5.00
2019-03-26T02:09:13.735Z,5.00
2019-03-26T02:11:42.177Z,5.00
2019-03-26T02:14:10.637Z,4.90
2019-03-26T02:16:39.071Z,4.90
2019-03-26T02:19:07.534Z,5.00
2019-03-26T02:21:36.001Z,4.90
2019-03-26T02:24:04.676Z,4.90
2019-03-26T02:26:33.151Z,4.90
2019-03-26T02:29:01.587Z,4.80
2019-03-26T02:31:30.128Z,4.80
2019-03-26T02:33:58.595Z,4.80
2019-03-26T02:36:27.582Z,4.70
2019-03-26T02:38:56.055Z,4.70
2019-03-26T02:41:24.494Z,4.80
2019-03-26T02:43:53.027Z,4.80
2019-03-26T02:46:21.463Z,4.80
2019-03-26T02:48:50.002Z,4.80
2019-03-26T02:51:18.464Z,4.70
2019-03-26T02:53:47.005Z,4.80
2019-03-26T02:56:15.446Z,4.70
2019-03-26T02:58:43.928Z,4.70
2019-03-26T03:01:12.366Z,4.70
2019-03-26T03:03:40.794Z,4.70
2019-03-26T03:06:09.258Z,4.70
2019-03-26T03:08:37.720Z,4.60
2019-03-26T03:11:06.260Z,4.60
2019-03-26T03:13:34.736Z,4.70
2019-03-26T03:16:03.178Z,4.60
2019-03-26T03:18:31.645Z,4.60
2019-03-26T03:21:00.119Z,4.60
2019-03-26T03:23:28.622Z,4.60
2019-03-26T03:25:57.084Z,4.60
2019-03-26T03:28:26.095Z,4.60
2019-03-26T03:30:54.568Z,4.60
2019-03-26T03:33:23.010Z,4.60
2019-03-26T03:35:53.042Z,4.60
2019-03-26T03:38:21.708Z,4.60
2019-03-26T03:40:50.175Z,4.60
2019-03-26T03:43:18.614Z,4.60
2019-03-26T03:45:47.441Z,4.70
2019-03-26T03:48:16.043Z,4.60
2019-03-26T03:50:45.526Z,4.70
2019-03-26T03:53:16.673Z,4.70
2019-03-26T03:55:45.250Z,4.70
2019-03-26T03:58:15.942Z,4.70
2019-03-26T04:00:47.619Z,4.70
2019-03-26T04:03:16.151Z,4.80
2019-03-26T04:05:44.732Z,4.70
2019-03-26T04:08:13.191Z,4.70
2019-03-26T04:10:41.741Z,4.70
2019-03-26T04:13:10.250Z,4.80
2019-03-26T04:15:38.951Z,4.70
2019-03-26T04:18:07.508Z,4.70
2019-03-26T04:20:35.962Z,4.70
2019-03-26T04:23:04.601Z,4.70
2019-03-26T04:25:33.176Z,4.60
2019-03-26T04:28:01.655Z,4.60
2019-03-26T04:30:31.104Z,4.60
2019-03-26T04:32:59.653Z,4.60
2019-03-26T04:35:28.195Z,4.70
2019-03-26T04:37:56.624Z,4.70
2019-03-26T04:40:25.095Z,4.70
2019-03-26T04:42:53.924Z,4.60
2019-03-26T04:45:22.363Z,4.70
2019-03-26T04:47:50.823Z,4.60
2019-03-26T04:50:19.259Z,4.60
2019-03-26T04:52:47.733Z,4.70
2019-03-26T04:55:16.170Z,4.70
2019-03-26T04:57:44.637Z,4.70
2019-03-26T05:00:13.317Z,4.70
2019-03-26T05:02:41.794Z,4.70
2019-03-26T05:05:12.362Z,4.70
2019-03-26T05:07:40.504Z,4.70
2019-03-26T05:10:09.117Z,4.70
2019-03-26T05:12:37.552Z,4.80
2019-03-26T05:15:06.233Z,4.80
2019-03-26T05:17:34.699Z,4.80
2019-03-26T05:20:03.447Z,4.80
2019-03-26T05:22:31.916Z,4.80
2019-03-26T05:25:00.373Z,4.80
2019-03-26T05:27:28.890Z,4.80
2019-03-26T05:29:57.370Z,4.90
2019-03-26T05:32:25.812Z,4.90
2019-03-26T05:34:54.260Z,4.80
2019-03-26T05:37:22.791Z,4.80
2019-03-26T05:39:51.304Z,4.90
2019-03-26T05:42:19.775Z,4.90
2019-03-26T05:44:48.215Z,4.90
2019-03-26T05:47:17.347Z,4.90
2019-03-26T05:49:45.766Z,4.90
2019-03-26T05:52:14.203Z,5.00
2019-03-26T05:54:42.676Z,5.00
2019-03-26T05:57:11.111Z,5.00
2019-03-26T05:59:39.583Z,5.10
2019-03-26T06:02:13.802Z,5.10
2019-03-26T06:04:38.211Z,5.10
2019-03-26T06:07:06.684Z,5.10
2019-03-26T06:09:35.168Z,5.10
2019-03-26T06:12:03.720Z,5.10
2019-03-26T06:14:32.165Z,5.10
2019-03-26T06:17:00.635Z,5.10
2019-03-26T06:19:29.069Z,5.20
2019-03-26T06:21:57.520Z,5.20
2019-03-26T06:24:25.989Z,5.20
2019-03-26T06:26:54.427Z,5.30
2019-03-26T06:29:22.896Z,5.30
2019-03-26T06:31:51.363Z,5.30
2019-03-26T06:34:19.805Z,5.30
2019-03-26T06:36:48.278Z,5.30
2019-03-26T06:39:16.720Z,5.30
2019-03-26T06:41:45.195Z,5.40
2019-03-26T06:44:13.662Z,5.40
2019-03-26T06:46:42.145Z,5.50
2019-03-26T06:49:10.587Z,5.50
2019-03-26T06:51:39.023Z,5.50
2019-03-26T06:54:07.513Z,5.50
2019-03-26T06:56:35.987Z,5.50
2019-03-26T06:59:04.527Z,5.60
2019-03-26T07:01:33.047Z,5.60
2019-03-26T07:04:02.051Z,5.60
2019-03-26T07:06:30.510Z,5.60
2019-03-26T07:08:58.979Z,5.60
2019-03-26T07:11:27.431Z,5.60
2019-03-26T07:13:55.909Z,5.50
2019-03-26T07:16:24.395Z,5.50
2019-03-26T07:18:52.839Z,5.50
2019-03-26T07:21:21.289Z,5.50
2019-03-26T07:23:49.899Z,5.60
2019-03-26T07:26:18.350Z,5.60
2019-03-26T07:28:46.892Z,5.60
2019-03-26T07:31:15.343Z,5.60
2019-03-26T07:33:43.831Z,5.70
2019-03-26T07:36:12.358Z,5.70
2019-03-26T07:38:41.224Z,5.70
2019-03-26T07:41:09.716Z,5.70
2019-03-26T07:43:38.176Z,5.80
2019-03-26T07:46:06.712Z,5.80
2019-03-26T07:48:35.276Z,6.00
2019-03-26T07:51:03.821Z,6.30
2019-03-26T07:53:32.321Z,6.60
2019-03-26T07:56:00.834Z,6.70
2019-03-26T07:58:29.310Z,6.80
2019-03-26T08:00:57.766Z,7.10
2019-03-26T08:03:26.254Z,7.00
2019-03-26T08:05:54.698Z,7.30
2019-03-26T08:08:23.194Z,7.20
2019-03-26T08:10:51.649Z,7.00
2019-03-26T08:13:20.148Z,6.90
2019-03-26T08:15:48.702Z,6.80
2019-03-26T08:18:17.187Z,6.70
2019-03-26T08:20:45.741Z,6.80
2019-03-26T08:23:14.404Z,6.90
2019-03-26T08:25:42.847Z,6.90
2019-03-26T08:28:11.337Z,7.00
2019-03-26T08:30:39.875Z,7.00
2019-03-26T08:33:08.592Z,7.10
2019-03-26T08:35:56.415Z,7.20
2019-03-26T08:38:24.874Z,7.10
2019-03-26T08:40:53.342Z,7.00
2019-03-26T08:43:21.898Z,7.00
2019-03-26T08:45:50.333Z,6.90
2019-03-26T08:48:18.819Z,6.90
2019-03-26T08:50:47.284Z,6.80
2019-03-26T08:53:15.772Z,6.80
2019-03-26T08:55:44.233Z,6.90
2019-03-26T08:58:12.726Z,6.90
2019-03-26T09:00:41.275Z,6.60
2019-03-26T09:03:09.739Z,6.50
2019-03-26T09:05:38.302Z,6.60
2019-03-26T09:08:06.848Z,6.60
2019-03-26T09:10:35.351Z,6.70
2019-03-26T09:13:03.834Z,6.80
2019-03-26T09:15:32.274Z,6.70
2019-03-26T09:18:00.733Z,6.70
2019-03-26T09:20:29.218Z,6.60
2019-03-26T09:22:57.675Z,6.70
2019-03-26T09:25:26.170Z,6.60
2019-03-26T09:27:54.636Z,6.70
2019-03-26T09:30:23.112Z,6.70
2019-03-26T09:32:51.583Z,6.80
2019-03-26T09:35:20.069Z,6.80
2019-03-26T09:37:48.555Z,6.80
2019-03-26T09:40:17.108Z,6.80
2019-03-26T09:42:45.591Z,6.90
2019-03-26T09:45:14.511Z,6.90
2019-03-26T09:47:43.102Z,6.90
2019-03-26T09:50:15.913Z,6.90
2019-03-26T09:52:44.430Z,7.00
2019-03-26T09:55:13.012Z,7.00
2019-03-26T09:57:41.507Z,7.10
2019-03-26T10:00:11.711Z,7.20
2019-03-26T10:02:43.014Z,7.30
2019-03-26T10:05:11.947Z,7.30
2019-03-26T10:07:40.374Z,7.30
2019-03-26T10:10:09.277Z,7.40
2019-03-26T10:12:37.768Z,7.60
2019-03-26T10:15:09.328Z,7.80
2019-03-26T10:17:37.931Z,7.80
2019-03-26T10:20:07.346Z,8.00
2019-03-26T10:22:37.360Z,8.40
2019-03-26T10:25:10.636Z,8.70
2019-03-26T10:27:38.434Z,8.10
2019-03-26T10:30:08.965Z,7.90
2019-03-26T10:32:38.231Z,7.90
2019-03-26T10:35:06.883Z,8.00
2019-03-26T10:37:35.331Z,7.90
2019-03-26T10:40:06.066Z,7.80
2019-03-26T10:42:34.603Z,7.80
2019-03-26T10:45:03.198Z,7.50
2019-03-26T10:47:31.670Z,7.20
2019-03-26T10:50:00.291Z,7.40
2019-03-26T10:52:32.722Z,7.50
2019-03-26T10:54:59.108Z,7.70
2019-03-26T10:57:27.596Z,7.90
2019-03-26T10:59:56.134Z,7.90
2019-03-26T11:02:24.596Z,7.50
2019-03-26T11:04:53.079Z,7.50
2019-03-26T11:07:21.594Z,7.60
2019-03-26T11:09:50.087Z,7.60
2019-03-26T11:12:18.546Z,7.60
2019-03-26T11:14:49.880Z,7.60
2019-03-26T11:17:18.374Z,7.70
2019-03-26T11:19:46.868Z,7.70
2019-03-26T11:22:15.617Z,7.60
2019-03-26T11:24:44.097Z,7.80
2019-03-26T11:27:12.559Z,7.60
2019-03-26T11:29:41.014Z,7.70
2019-03-26T11:32:09.633Z,7.70
2019-03-26T11:34:38.079Z,7.60
2019-03-26T11:37:06.604Z,7.50
2019-03-26T11:39:35.080Z,7.50
2019-03-26T11:42:03.619Z,7.40
2019-03-26T11:44:32.202Z,7.40
2019-03-26T11:47:01.110Z,7.50
2019-03-26T11:49:29.565Z,7.60
2019-03-26T11:51:58.017Z,7.40
2019-03-26T11:54:26.477Z,7.50
2019-03-26T11:56:57.077Z,7.40
2019-03-26T11:59:25.497Z,7.40
2019-03-26T12:01:53.935Z,7.50
2019-03-26T12:04:22.429Z,7.50
2019-03-26T12:06:50.875Z,7.40
2019-03-26T12:09:19.340Z,7.50
2019-03-26T12:11:47.782Z,7.40
2019-03-26T12:14:16.259Z,7.40
2019-03-26T12:16:44.798Z,7.40
2019-03-26T12:19:13.255Z,7.30
2019-03-26T12:21:41.732Z,7.40
2019-03-26T12:24:10.213Z,7.30
2019-03-26T12:26:38.677Z,7.50
2019-03-26T12:29:07.167Z,7.50
2019-03-26T12:31:35.730Z,7.60
2019-03-26T12:34:04.323Z,7.60
2019-03-26T12:36:39.726Z,7.50
2019-03-26T12:39:04.920Z,7.50
2019-03-26T12:41:34.245Z,7.60
2019-03-26T12:44:02.772Z,7.60
2019-03-26T12:46:32.195Z,7.70
2019-03-26T12:49:00.697Z,7.70
2019-03-26T12:51:29.193Z,7.80
2019-03-26T12:53:57.654Z,7.80
2019-03-26T12:56:26.130Z,7.80
2019-03-26T12:58:54.602Z,8.00
2019-03-26T13:01:23.086Z,8.10
2019-03-26T13:03:51.533Z,8.00
2019-03-26T13:06:20.175Z,7.90
2019-03-26T13:08:48.625Z,8.00
2019-03-26T13:11:17.377Z,8.10
2019-03-26T13:13:45.954Z,8.00
2019-03-26T13:16:14.513Z,7.80
2019-03-26T13:18:43.050Z,7.60
2019-03-26T13:21:11.488Z,7.50
2019-03-26T13:23:40.101Z,7.50
2019-03-26T13:26:08.623Z,7.60
2019-03-26T13:28:37.108Z,7.60
2019-03-26T13:31:05.541Z,7.50
2019-03-26T13:33:34.007Z,7.60
2019-03-26T13:36:02.444Z,7.60
2019-03-26T13:38:30.923Z,7.50
2019-03-26T13:40:59.384Z,7.40
2019-03-26T13:43:27.828Z,7.50
2019-03-26T13:45:56.287Z,7.50
2019-03-26T13:48:24.752Z,7.80
2019-03-26T13:50:53.219Z,7.90
2019-03-26T13:53:21.691Z,7.90
2019-03-26T13:55:50.147Z,7.80
2019-03-26T13:58:18.633Z,7.60
2019-03-26T14:00:47.107Z,7.40
2019-03-26T14:03:15.559Z,7.40
2019-03-26T14:05:44.018Z,7.40
2019-03-26T14:08:12.649Z,7.40
2019-03-26T14:10:41.753Z,7.40
2019-03-26T14:13:10.306Z,7.30
2019-03-26T14:15:38.752Z,7.40
2019-03-26T14:18:07.351Z,7.50
2019-03-26T14:20:35.827Z,7.40
2019-03-26T14:23:04.364Z,7.40
2019-03-26T14:25:32.798Z,7.40
2019-03-26T14:28:01.340Z,7.40
2019-03-26T14:30:37.767Z,7.50
2019-03-26T14:33:27.167Z,7.60
2019-03-26T14:35:55.607Z,7.40
2019-03-26T14:38:24.081Z,7.50
2019-03-26T14:40:55.196Z,7.60
2019-03-26T14:43:22.838Z,7.60
2019-03-26T14:45:51.303Z,7.50
2019-03-26T14:48:19.807Z,7.50
2019-03-26T14:50:48.274Z,7.50
2019-03-26T14:53:16.730Z,7.50
2019-03-26T14:55:45.196Z,7.70
2019-03-26T14:58:13.639Z,7.70
2019-03-26T15:00:42.179Z,7.70
2019-03-26T15:03:10.648Z,7.70
2019-03-26T15:05:39.164Z,7.70
2019-03-26T15:08:08.061Z,7.80
2019-03-26T15:10:36.556Z,7.80
2019-03-26T15:13:05.108Z,7.80
2019-03-26T15:15:36.481Z,7.90
2019-03-26T15:18:03.891Z,7.80
2019-03-26T15:20:32.410Z,7.80
2019-03-26T15:23:00.883Z,7.80
2019-03-26T15:25:29.341Z,7.90
2019-03-26T15:27:57.796Z,7.90
2019-03-26T15:30:26.354Z,7.80
2019-03-26T15:32:54.786Z,7.80
2019-03-26T15:35:26.744Z,7.80
2019-03-26T15:37:55.270Z,7.70
2019-03-26T15:40:23.774Z,7.60
2019-03-26T15:42:52.251Z,7.60
2019-03-26T15:45:20.747Z,7.50
2019-03-26T15:47:49.223Z,7.60
2019-03-26T15:50:37.902Z,7.50
2019-03-26T15:53:06.368Z,7.50
2019-03-26T15:55:34.948Z,7.50
2019-03-26T15:58:03.507Z,7.60
2019-03-26T16:00:32.078Z,7.60
2019-03-26T16:03:00.516Z,7.60
2019-03-26T16:05:29.010Z,7.60
2019-03-26T16:08:00.447Z,7.60
2019-03-26T16:10:27.676Z,7.60
2019-03-26T16:12:56.144Z,7.70
2019-03-26T16:15:24.659Z,7.70
2019-03-26T16:17:53.122Z,7.70
2019-03-26T16:20:21.659Z,7.70
2019-03-26T16:22:50.115Z,7.70
2019-03-26T16:25:18.603Z,7.80
2019-03-26T16:27:47.095Z,7.80
2019-03-26T16:30:16.107Z,7.80
2019-03-26T16:32:44.548Z,7.80
2019-03-26T16:35:13.159Z,7.70
2019-03-26T16:37:41.666Z,7.70
2019-03-26T16:40:10.262Z,7.70
2019-03-26T16:42:38.733Z,7.70
2019-03-26T16:45:07.444Z,7.60
2019-03-26T16:47:35.892Z,7.70
2019-03-26T16:50:07.014Z,7.70
2019-03-26T16:52:35.448Z,7.70
2019-03-26T16:55:04.976Z,7.70
2019-03-26T16:57:33.427Z,7.70
2019-03-26T17:00:01.918Z,7.70
2019-03-26T17:02:30.356Z,7.70
2019-03-26T17:04:58.804Z,7.70
2019-03-26T17:07:27.291Z,7.70
2019-03-26T17:09:55.886Z,7.60
2019-03-26T17:12:24.316Z,7.60
2019-03-26T17:14:52.779Z,7.60
2019-03-26T17:17:21.230Z,7.60
2019-03-26T17:19:49.971Z,7.60
2019-03-26T17:22:18.445Z,7.50
2019-03-26T17:24:46.978Z,7.50
2019-03-26T17:27:15.442Z,7.50
2019-03-26T17:29:43.902Z,7.50
2019-03-26T17:32:12.437Z,7.50
2019-03-26T17:34:40.899Z,7.40
2019-03-26T17:37:09.326Z,7.40
2019-03-26T17:39:37.802Z,7.30
2019-03-26T17:42:16.473Z,7.30
2019-03-26T17:44:36.431Z,7.20
2019-03-26T17:47:04.891Z,7.20
2019-03-26T17:49:33.351Z,7.20
2019-03-26T17:52:01.815Z,7.10
2019-03-26T17:54:30.295Z,7.10
2019-03-26T17:56:58.735Z,7.10
2019-03-26T17:59:27.170Z,7.10
2019-03-26T18:01:55.653Z,7.00
2019-03-26T18:04:24.471Z,7.00
2019-03-26T18:06:52.947Z,7.00
2019-03-26T18:09:21.419Z,7.00
2019-03-26T18:11:49.851Z,7.00
2019-03-26T18:14:18.329Z,6.90
2019-03-26T18:16:46.826Z,6.90
2019-03-26T18:19:34.640Z,6.90
2019-03-26T18:22:03.140Z,6.90
2019-03-26T18:24:32.240Z,6.90
2019-03-26T18:27:00.738Z,6.90
2019-03-26T18:29:29.205Z,6.90
2019-03-26T18:31:57.727Z,6.80
2019-03-26T18:34:26.195Z,6.80
2019-03-26T18:36:54.731Z,6.70
2019-03-26T18:39:23.219Z,6.70
2019-03-26T18:41:51.948Z,6.70
2019-03-26T18:44:20.444Z,6.70
2019-03-26T18:46:48.907Z,6.70
2019-03-26T18:49:17.379Z,6.70
2019-03-26T18:51:45.883Z,6.70
2019-03-26T18:54:14.320Z,6.70
2019-03-26T18:56:42.929Z,6.70
2019-03-26T18:59:11.425Z,6.60
2019-03-26T19:01:39.875Z,6.60
2019-03-26T19:04:08.298Z,6.60
2019-03-26T19:06:36.771Z,6.60
2019-03-26T19:09:06.256Z,6.60
2019-03-26T19:11:34.742Z,6.60
2019-03-26T19:14:03.199Z,6.60
2019-03-26T19:16:31.672Z,6.60
2019-03-26T19:19:00.108Z,6.60
2019-03-26T19:21:28.587Z,6.60
2019-03-26T19:24:04.012Z,6.60
2019-03-26T19:26:27.305Z,6.60
2019-03-26T19:28:55.741Z,6.60
2019-03-26T19:31:24.215Z,6.60
2019-03-26T19:33:52.662Z,6.60
2019-03-26T19:36:21.135Z,6.60
2019-03-26T19:38:49.575Z,6.60
2019-03-26T19:41:18.722Z,6.60
2019-03-26T19:43:47.207Z,6.60
2019-03-26T19:46:15.737Z,6.60
2019-03-26T19:48:44.989Z,6.60
2019-03-26T19:51:14.426Z,6.60
2019-03-26T19:53:42.978Z,6.60
2019-03-26T19:56:11.412Z,6.60
2019-03-26T19:58:39.902Z,6.60
2019-03-26T20:01:08.367Z,6.60
2019-03-26T20:03:36.833Z,6.60
2019-03-26T20:06:13.461Z,6.60
2019-03-26T20:08:35.484Z,6.60
2019-03-26T20:11:03.966Z,6.60
2019-03-26T20:13:32.427Z,6.60
2019-03-26T20:16:00.910Z,6.60
2019-03-26T20:18:29.387Z,6.60
2019-03-26T20:20:57.822Z,6.60
2019-03-26T20:23:26.287Z,6.60
2019-03-26T20:25:54.763Z,6.60
2019-03-26T20:28:26.458Z,6.60
2019-03-26T20:30:53.438Z,6.60
2019-03-26T20:33:21.916Z,6.60
2019-03-26T20:35:50.396Z,6.60
2019-03-26T20:38:18.829Z,6.60
2019-03-26T20:40:47.275Z,6.60
2019-03-26T20:43:15.743Z,6.60
2019-03-26T20:45:44.175Z,6.60
2019-03-26T20:48:12.654Z,6.60
2019-03-26T20:50:41.163Z,6.50
2019-03-26T20:53:09.637Z,6.50
2019-03-26T20:55:38.071Z,6.50
2019-03-26T20:58:06.675Z,6.50
2019-03-26T21:00:39.751Z,6.50
2019-03-26T21:03:08.547Z,6.50
2019-03-26T21:05:37.264Z,6.50
2019-03-26T21:08:06.179Z,6.50
2019-03-26T21:10:34.682Z,6.50
2019-03-26T21:13:03.233Z,6.50
2019-03-26T21:15:31.694Z,6.50
2019-03-26T21:18:00.179Z,6.50
2019-03-26T21:20:28.616Z,6.50
2019-03-26T21:22:57.095Z,6.40
2019-03-26T21:25:25.531Z,6.50
2019-03-26T21:27:53.966Z,6.50
2019-03-26T21:30:22.584Z,6.40
2019-03-26T21:32:51.047Z,6.40
2019-03-26T21:35:19.487Z,6.40
2019-03-26T21:37:48.188Z,6.40
2019-03-26T21:40:17.127Z,6.40
2019-03-26T21:42:45.570Z,6.40
2019-03-26T21:45:17.120Z,6.30
2019-03-26T21:47:45.555Z,6.30
2019-03-26T21:50:14.260Z,6.30
2019-03-26T21:52:42.697Z,6.30
2019-03-26T21:55:13.412Z,6.40
2019-03-26T21:57:42.035Z,6.40
2019-03-26T22:00:11.324Z,6.30
2019-03-26T22:02:39.786Z,6.30
2019-03-26T22:05:09.065Z,6.30
2019-03-26T22:07:37.619Z,6.30
2019-03-26T22:10:07.002Z,6.30
2019-03-26T22:12:35.436Z,6.30
2019-03-26T22:15:06.555Z,6.30
2019-03-26T22:17:34.991Z,6.30
2019-03-26T22:20:03.902Z,6.30
2019-03-26T22:22:33.035Z,6.30
2019-03-26T22:25:01.616Z,6.30
2019-03-26T22:27:30.088Z,6.30
2019-03-26T22:29:58.529Z,6.30
2019-03-26T22:32:26.983Z,6.30
2019-03-26T22:34:55.418Z,6.30
2019-03-26T22:37:23.900Z,6.30
2019-03-26T22:39:52.347Z,6.30
2019-03-26T22:42:20.838Z,6.20
2019-03-26T22:44:49.284Z,6.30
2019-03-26T22:47:17.735Z,6.30
2019-03-26T22:49:46.219Z,6.30
2019-03-26T22:52:14.667Z,6.30
2019-03-26T22:54:43.098Z,6.30
2019-03-26T22:57:11.563Z,6.30
2019-03-26T22:59:40.044Z,6.30
2019-03-26T23:02:08.575Z,6.30
2019-03-26T23:04:37.204Z,6.30
2019-03-26T23:07:05.649Z,6.20
2019-03-26T23:09:34.122Z,6.30
2019-03-26T23:12:02.554Z,6.30
2019-03-26T23:14:44.011Z,6.30
2019-03-26T23:17:01.294Z,6.30
2019-03-26T23:19:29.744Z,6.30
2019-03-26T23:21:58.208Z,6.40
2019-03-26T23:24:26.684Z,6.30
2019-03-26T23:26:55.160Z,6.30
2019-03-26T23:29:23.621Z,6.20
2019-03-26T23:31:52.091Z,6.20
2019-03-26T23:34:20.531Z,6.20
2019-03-26T23:36:49.018Z,6.20
2019-03-26T23:39:17.502Z,6.20
2019-03-26T23:41:45.975Z,6.20
2019-03-26T23:44:25.153Z,6.20
2019-03-26T23:46:44.584Z,6.20
2019-03-26T23:49:13.059Z,6.20
2019-03-26T23:51:41.505Z,6.20
2019-03-26T23:54:10.006Z,6.20
2019-03-26T23:56:38.491Z,6.20
2019-03-26T23:59:06.927Z,6.20
